Time;durP1;ratioP1;P1;durP2;ratioP2;P2;SDS_P1;SDS_P2;PMS_P1;PMS_P2;Temp;Humidity;BMP_temperature;BMP_pressure;BME280_temperature;BME280_humidity;BME280_pressure;Samples;Min_cycle;Max_cycle;Signal;HPM_P1;HPM_P2
2023/02/20 00:00:41;;;;;;;3.15;2.72;;;;;;;;;;5034195;28;20198;-84
2023/02/20 00:03:09;;;;;;;2.70;2.50;;;;;;;;;;5033924;28;20313;-85
2023/02/20 00:05:37;;;;;;;2.55;2.35;;;;;;;;;;5033829;28;20209;-84
2023/02/20 00:08:06;;;;;;;2.67;2.47;;;;;;;;;;5033298;28;20257;-84
2023/02/20 00:10:33;;;;;;;2.40;2.20;;;;;;;;;;5033569;28;20195;-83
2023/02/20 00:13:02;;;;;;;2.42;2.22;;;;;;;;;;5033701;28;20301;-82
2023/02/20 00:15:30;;;;;;;2.08;1.98;;;;;;;;;;5033679;28;20289;-82
2023/02/20 00:17:57;;;;;;;2.58;2.38;;;;;;;;;;5033575;28;20678;-82
2023/02/20 00:20:29;;;;;;;2.60;2.20;;;;;;;;;;5033594;28;20628;-83
2023/02/20 00:22:57;;;;;;;2.40;2.25;;;;;;;;;;5033064;28;20222;-84
2023/02/20 00:25:24;;;;;;;3.05;2.80;;;;;;;;;;5033125;28;20206;-82
2023/02/20 00:27:52;;;;;;;2.42;2.22;;;;;;;;;;5032970;28;20651;-82
2023/02/20 00:30:23;;;;;;;2.65;2.45;;;;;;;;;;5033050;28;20201;-83
2023/02/20 00:32:53;;;;;;;2.13;2.03;;;;;;;;;;5033382;28;20234;-83
2023/02/20 00:35:21;;;;;;;2.15;1.92;;;;;;;;;;5032783;28;20234;-84
2023/02/20 00:37:50;;;;;;;2.20;2.00;;;;;;;;;;5032589;28;20222;-83
2023/02/20 00:40:20;;;;;;;2.22;2.03;;;;;;;;;;5031834;28;20208;-82
2023/02/20 00:42:47;;;;;;;2.00;1.90;;;;;;;;;;5032310;28;20309;-82
2023/02/20 00:45:17;;;;;;;2.13;2.03;;;;;;;;;;5032904;28;20285;-82
2023/02/20 00:47:46;;;;;;;2.15;2.03;;;;;;;;;;5032027;28;20317;-82
2023/02/20 00:50:18;;;;;;;2.78;2.58;;;;;;;;;;5032157;28;20289;-82
2023/02/20 00:52:45;;;;;;;2.65;2.45;;;;;;;;;;5032430;28;20277;-82
2023/02/20 00:55:13;;;;;;;3.75;2.83;;;;;;;;;;5041940;28;20265;-85
2023/02/20 00:57:41;;;;;;;3.05;2.85;;;;;;;;;;5054984;28;20253;-84
2023/02/20 01:00:16;;;;;;;2.60;2.40;;;;;;;;;;5054133;28;20206;-83
2023/02/20 01:02:45;;;;;;;2.83;2.63;;;;;;;;;;5053601;28;20293;-83
2023/02/20 01:05:12;;;;;;;2.85;2.60;;;;;;;;;;5054420;28;20203;-83
2023/02/20 01:07:40;;;;;;;2.88;2.67;;;;;;;;;;5053765;28;20260;-84
2023/02/20 01:10:09;;;;;;;2.55;2.35;;;;;;;;;;5041092;28;20248;-84
2023/02/20 01:12:36;;;;;;;3.10;2.90;;;;;;;;;;5037712;28;20719;-84
2023/02/20 01:15:05;;;;;;;3.40;3.10;;;;;;;;;;5025183;28;20659;-84
2023/02/20 01:17:32;;;;;;;3.97;3.67;;;;;;;;;;5017376;28;20313;-84
2023/02/20 01:20:01;;;;;;;3.75;3.28;;;;;;;;;;5035267;28;20206;-84
2023/02/20 01:22:29;;;;;;;3.75;3.45;;;;;;;;;;5034193;28;20314;-83
2023/02/20 01:24:56;;;;;;;3.42;3.13;;;;;;;;;;5034798;28;20286;-84
2023/02/20 01:27:24;;;;;;;3.40;3.10;;;;;;;;;;5034364;28;20714;-84
2023/02/20 01:29:51;;;;;;;2.60;2.40;;;;;;;;;;5033915;28;20268;-84
2023/02/20 01:32:19;;;;;;;3.30;2.83;;;;;;;;;;5034364;28;20298;-83
2023/02/20 01:34:46;;;;;;;3.08;2.88;;;;;;;;;;5033721;28;20646;-83
2023/02/20 01:37:16;;;;;;;2.63;2.42;;;;;;;;;;5034177;28;20225;-84
2023/02/20 01:39:46;;;;;;;3.85;3.55;;;;;;;;;;5034102;28;20249;-84
2023/02/20 01:42:19;;;;;;;2.88;2.65;;;;;;;;;;5033498;28;20739;-83
2023/02/20 01:44:46;;;;;;;4.05;3.67;;;;;;;;;;5024549;28;20222;-84
2023/02/20 01:47:17;;;;;;;3.50;3.20;;;;;;;;;;5013753;28;20654;-83
2023/02/20 01:49:48;;;;;;;3.20;2.90;;;;;;;;;;5032620;28;20224;-83
2023/02/20 01:52:20;;;;;;;2.58;2.38;;;;;;;;;;5033077;28;20195;-83
2023/02/20 01:54:53;;;;;;;3.60;3.30;;;;;;;;;;5034786;28;20183;-84
2023/02/20 01:57:23;;;;;;;4.03;3.63;;;;;;;;;;5037218;28;20717;-83
2023/02/20 01:59:55;;;;;;;3.80;3.22;;;;;;;;;;5036091;28;20222;-82
2023/02/20 02:02:24;;;;;;;4.88;4.38;;;;;;;;;;5036437;28;20271;-83
2023/02/20 02:04:52;;;;;;;4.88;4.40;;;;;;;;;;5036852;28;20289;-83
2023/02/20 02:07:21;;;;;;;3.55;3.25;;;;;;;;;;5036487;28;20226;-84
2023/02/20 02:09:53;;;;;;;3.17;2.85;;;;;;;;;;5035793;28;20770;-82
2023/02/20 02:12:21;;;;;;;3.25;2.97;;;;;;;;;;5036497;28;20261;-84
2023/02/20 02:14:49;;;;;;;2.33;2.13;;;;;;;;;;5036241;28;20232;-83
2023/02/20 02:17:32;;;;;;;3.05;2.85;;;;;;;;;;5036267;28;20355;-82
2023/02/20 02:20:48;;;;;;;3.28;2.97;;;;;;;;;;5015998;28;20209;-83
2023/02/20 02:23:57;;;;;;;2.53;2.33;;;;;;;;;;5016114;28;20806;-82
2023/02/20 02:27:33;;;;;;;3.88;3.38;;;;;;;;;;5002754;28;20203;-83
2023/02/20 02:30:59;;;;;;;3.00;2.80;;;;;;;;;;4922251;28;20212;-83
2023/02/20 02:34:02;;;;;;;3.40;3.10;;;;;;;;;;4998286;28;20214;-82
2023/02/20 02:36:51;;;;;;;2.97;2.78;;;;;;;;;;5006370;28;20202;-83
2023/02/20 02:39:25;;;;;;;4.10;3.70;;;;;;;;;;5015270;28;20217;-83
2023/02/20 02:41:59;;;;;;;4.50;4.10;;;;;;;;;;5016483;28;20190;-82
2023/02/20 02:44:32;;;;;;;3.53;3.22;;;;;;;;;;5014830;28;20218;-82
2023/02/20 02:47:03;;;;;;;3.30;3.10;;;;;;;;;;5015455;28;20656;-82
2023/02/20 02:49:37;;;;;;;4.07;3.72;;;;;;;;;;5014652;28;20267;-82
2023/02/20 02:52:06;;;;;;;3.40;3.10;;;;;;;;;;5014485;28;20647;-82
2023/02/20 02:54:34;;;;;;;3.30;3.00;;;;;;;;;;5014633;28;20203;-82
2023/02/20 02:57:22;;;;;;;3.70;3.38;;;;;;;;;;5014306;28;20306;-82
2023/02/20 02:59:53;;;;;;;3.45;3.15;;;;;;;;;;5014475;28;20191;-82
2023/02/20 03:02:22;;;;;;;2.97;2.78;;;;;;;;;;5015392;28;20226;-82
2023/02/20 03:04:51;;;;;;;4.55;3.67;;;;;;;;;;5014554;28;20949;-82
2023/02/20 03:07:21;;;;;;;2.80;2.60;;;;;;;;;;5040482;23;20685;-81
2023/02/20 03:09:52;;;;;;;2.60;2.40;;;;;;;;;;5074359;28;20205;-80
2023/02/20 03:12:21;;;;;;;3.20;2.85;;;;;;;;;;5076003;28;20201;-80
2023/02/20 03:17:42;;;;;;;3.08;2.88;;;;;;;;;;5075796;28;20223;-80
2023/02/20 03:20:12;;;;;;;3.97;3.42;;;;;;;;;;5073502;28;20299;-80
2023/02/20 03:22:44;;;;;;;3.10;2.90;;;;;;;;;;5073750;28;20688;-78
2023/02/20 03:25:16;;;;;;;2.85;2.58;;;;;;;;;;5073750;28;20216;-80
2023/02/20 03:27:47;;;;;;;2.70;2.50;;;;;;;;;;5072850;28;20599;-79
2023/02/20 03:30:22;;;;;;;2.40;2.20;;;;;;;;;;5073075;28;20201;-79
2023/02/20 03:44:00;;;;;;;1.75;1.65;;;;;;;;;;5073263;28;20695;-79
2023/02/20 03:46:28;;;;;;;2.10;2.00;;;;;;;;;;5080057;28;20280;-79
2023/02/20 03:49:00;;;;;;;2.10;1.90;;;;;;;;;;5079614;28;20229;-80
2023/02/20 03:51:27;;;;;;;3.08;2.88;;;;;;;;;;5076467;28;20224;-80
2023/02/20 03:53:56;;;;;;;2.35;2.15;;;;;;;;;;5074286;28;20213;-79
2023/02/20 03:56:26;;;;;;;2.50;2.30;;;;;;;;;;5079720;28;20303;-79
2023/02/20 03:59:00;;;;;;;2.17;2.00;;;;;;;;;;5076593;28;20221;-79
2023/02/20 04:01:28;;;;;;;2.55;2.35;;;;;;;;;;5073288;28;20192;-80
2023/02/20 04:03:57;;;;;;;3.03;2.78;;;;;;;;;;5073793;28;20221;-80
2023/02/20 04:06:30;;;;;;;2.78;2.58;;;;;;;;;;5073995;28;20201;-79
2023/02/20 04:09:03;;;;;;;2.92;2.72;;;;;;;;;;5073261;28;20564;-79
2023/02/20 04:11:36;;;;;;;2.92;2.63;;;;;;;;;;5073812;28;20204;-80
2023/02/20 04:14:04;;;;;;;3.80;3.40;;;;;;;;;;5073941;28;20200;-80
2023/02/20 04:16:35;;;;;;;3.50;3.20;;;;;;;;;;5073627;28;20247;-80
2023/02/20 04:19:03;;;;;;;3.90;3.55;;;;;;;;;;5072515;28;20231;-80
2023/02/20 04:21:35;;;;;;;2.70;2.50;;;;;;;;;;5073389;28;20201;-80
2023/02/20 04:24:09;;;;;;;4.15;3.60;;;;;;;;;;5072336;28;20225;-79
2023/02/20 04:26:37;;;;;;;3.00;2.70;;;;;;;;;;5072757;28;20295;-80
2023/02/20 04:29:05;;;;;;;3.85;3.55;;;;;;;;;;5070926;28;20311;-79
2023/02/20 04:31:33;;;;;;;4.38;3.97;;;;;;;;;;5072160;28;20318;-79
2023/02/20 04:34:00;;;;;;;3.30;3.00;;;;;;;;;;5069866;28;20246;-79
2023/02/20 04:36:28;;;;;;;3.72;3.42;;;;;;;;;;5071908;28;20288;-79
2023/02/20 04:38:55;;;;;;;4.57;4.03;;;;;;;;;;5070838;28;20221;-79
2023/02/20 04:41:24;;;;;;;4.78;4.38;;;;;;;;;;5071938;28;20295;-80
2023/02/20 04:44:29;;;;;;;4.68;4.28;;;;;;;;;;5071847;28;20212;-79
2023/02/20 04:46:40;;;;;;;6.15;5.20;;;;;;;;;;5072507;28;20200;-79
2023/02/20 04:49:07;;;;;;;6.75;4.30;;;;;;;;;;5071139;28;20237;-79
2023/02/20 04:51:35;;;;;;;4.47;4.07;;;;;;;;;;5071173;28;20207;-80
2023/02/20 04:54:02;;;;;;;5.20;4.70;;;;;;;;;;5071496;28;20200;-80
2023/02/20 04:56:31;;;;;;;5.55;5.05;;;;;;;;;;5072079;28;20203;-80
2023/02/20 04:58:58;;;;;;;5.00;4.57;;;;;;;;;;5071121;28;20224;-79
2023/02/20 05:01:26;;;;;;;6.72;5.60;;;;;;;;;;5071643;28;20759;-79
2023/02/20 05:03:53;;;;;;;6.15;5.55;;;;;;;;;;5072084;28;20201;-80
2023/02/20 05:06:21;;;;;;;5.93;5.32;;;;;;;;;;5070867;28;20600;-79
2023/02/20 05:08:48;;;;;;;6.65;5.97;;;;;;;;;;5070415;28;20233;-80
2023/02/20 05:11:15;;;;;;;6.47;5.57;;;;;;;;;;5071379;28;20677;-79
2023/02/20 05:13:44;;;;;;;5.70;5.20;;;;;;;;;;5069520;28;20211;-80
2023/02/20 05:16:12;;;;;;;5.55;5.07;;;;;;;;;;5071022;28;20291;-79
2023/02/20 05:18:40;;;;;;;7.20;6.00;;;;;;;;;;5070473;28;20220;-79
2023/02/20 05:23:52;;;;;;;6.88;5.97;;;;;;;;;;5071271;28;20208;-78
2023/02/20 05:26:21;;;;;;;7.78;6.97;;;;;;;;;;5071145;28;20237;-80
2023/02/20 05:28:50;;;;;;;6.63;5.85;;;;;;;;;;5069808;28;20229;-79
2023/02/20 05:31:17;;;;;;;7.15;5.75;;;;;;;;;;5075249;28;20207;-79
2023/02/20 05:33:45;;;;;;;6.72;6.05;;;;;;;;;;5074670;28;20209;-79
2023/02/20 05:36:12;;;;;;;7.78;6.97;;;;;;;;;;5074894;28;20576;-79
2023/02/20 05:38:40;;;;;;;9.45;7.65;;;;;;;;;;5074449;28;20228;-79
2023/02/20 05:41:09;;;;;;;7.75;6.95;;;;;;;;;;5074768;28;20208;-80
2023/02/20 05:43:36;;;;;;;7.63;6.90;;;;;;;;;;5075075;28;20298;-80
2023/02/20 05:46:05;;;;;;;6.60;5.95;;;;;;;;;;5074988;28;20228;-80
2023/02/20 05:48:32;;;;;;;7.07;6.25;;;;;;;;;;5073807;28;20346;-80
2023/02/20 05:51:00;;;;;;;6.38;5.55;;;;;;;;;;5074791;28;20568;-79
2023/02/20 05:53:28;;;;;;;5.47;4.97;;;;;;;;;;5074957;28;20284;-80
2023/02/20 05:55:56;;;;;;;6.10;5.50;;;;;;;;;;5074897;28;20197;-80
2023/02/20 05:58:23;;;;;;;5.82;5.32;;;;;;;;;;5074286;28;20231;-80
2023/02/20 06:00:51;;;;;;;7.25;6.22;;;;;;;;;;5075789;28;20652;-80
2023/02/20 06:03:20;;;;;;;8.30;7.28;;;;;;;;;;5076906;28;20197;-81
2023/02/20 06:05:48;;;;;;;10.77;8.25;;;;;;;;;;5075038;28;20239;-80
2023/02/20 06:08:15;;;;;;;8.18;7.38;;;;;;;;;;5073467;28;20228;-80
2023/02/20 06:10:43;;;;;;;9.02;7.15;;;;;;;;;;5077703;28;20264;-82
2023/02/20 06:13:10;;;;;;;8.48;6.68;;;;;;;;;;5074368;28;20210;-80
2023/02/20 06:15:38;;;;;;;6.93;6.22;;;;;;;;;;5074407;28;20219;-81
2023/02/20 06:18:05;;;;;;;6.53;5.93;;;;;;;;;;5073197;28;20235;-81
2023/02/20 06:20:34;;;;;;;6.32;5.72;;;;;;;;;;5074584;28;20201;-80
2023/02/20 06:23:02;;;;;;;8.30;7.43;;;;;;;;;;5074069;28;20216;-80
2023/02/20 06:25:29;;;;;;;8.02;6.90;;;;;;;;;;5053739;28;20876;-80
2023/02/20 06:27:57;;;;;;;7.72;5.20;;;;;;;;;;5057016;28;20315;-80
2023/02/20 06:30:25;;;;;;;7.07;6.35;;;;;;;;;;5073827;28;20205;-79
2023/02/20 06:32:52;;;;;;;6.32;5.45;;;;;;;;;;5073948;28;20189;-80
2023/02/20 06:35:20;;;;;;;6.18;5.53;;;;;;;;;;5074666;28;20223;-80
2023/02/20 06:37:49;;;;;;;8.07;7.28;;;;;;;;;;5074273;28;20308;-79
2023/02/20 06:40:16;;;;;;;7.45;6.75;;;;;;;;;;5072522;28;20208;-79
2023/02/20 06:42:43;;;;;;;6.65;5.95;;;;;;;;;;5073773;28;20204;-80
2023/02/20 06:45:11;;;;;;;7.38;6.32;;;;;;;;;;5073538;28;20586;-79
2023/02/20 06:47:38;;;;;;;7.15;5.90;;;;;;;;;;5073191;28;20611;-79
2023/02/20 06:50:07;;;;;;;6.53;5.80;;;;;;;;;;5072818;28;20201;-80
2023/02/20 06:52:34;;;;;;;6.43;5.75;;;;;;;;;;5073605;28;20207;-80
2023/02/20 06:55:03;;;;;;;6.22;5.10;;;;;;;;;;5073650;28;20295;-79
2023/02/20 06:57:32;;;;;;;5.72;4.97;;;;;;;;;;5073186;28;20221;-80
2023/02/20 07:00:00;;;;;;;6.57;5.07;;;;;;;;;;5073114;28;20259;-78
2023/02/20 07:02:27;;;;;;;5.32;4.10;;;;;;;;;;5073878;28;20211;-79
2023/02/20 07:04:54;;;;;;;4.50;4.10;;;;;;;;;;5073225;28;20201;-79
2023/02/20 07:07:22;;;;;;;4.90;4.40;;;;;;;;;;5073198;28;20312;-78
2023/02/20 07:09:49;;;;;;;6.35;5.13;;;;;;;;;;5072217;28;20203;-80
2023/02/20 07:12:18;;;;;;;4.20;3.78;;;;;;;;;;5073178;28;20207;-78
2023/02/20 07:14:45;;;;;;;5.20;4.70;;;;;;;;;;5077407;28;20290;-79
2023/02/20 07:17:13;;;;;;;4.82;4.05;;;;;;;;;;5083656;28;20307;-79
2023/02/20 07:19:40;;;;;;;3.83;3.45;;;;;;;;;;5075365;28;20576;-81
2023/02/20 07:22:08;;;;;;;4.00;3.60;;;;;;;;;;5074350;28;20197;-80
2023/02/20 07:24:36;;;;;;;3.40;3.08;;;;;;;;;;5073510;28;20205;-80
2023/02/20 07:27:05;;;;;;;4.47;3.72;;;;;;;;;;5073429;28;20271;-79
2023/02/20 07:29:34;;;;;;;3.72;3.42;;;;;;;;;;5072070;28;20205;-80
2023/02/20 07:32:01;;;;;;;2.83;2.63;;;;;;;;;;5073492;28;20211;-80
2023/02/20 07:34:29;;;;;;;3.92;3.55;;;;;;;;;;5072941;28;20591;-80
2023/02/20 07:36:56;;;;;;;4.82;3.92;;;;;;;;;;5073250;28;20219;-80
2023/02/20 07:39:25;;;;;;;3.65;2.92;;;;;;;;;;5072472;28;20227;-80
2023/02/20 07:41:52;;;;;;;4.15;3.60;;;;;;;;;;5072824;28;20208;-80
2023/02/20 07:44:20;;;;;;;3.50;3.20;;;;;;;;;;5072646;28;20211;-80
2023/02/20 07:46:48;;;;;;;3.15;2.95;;;;;;;;;;5072092;28;20800;-79
2023/02/20 07:49:16;;;;;;;3.15;2.85;;;;;;;;;;5071705;28;20232;-80
2023/02/20 07:51:43;;;;;;;3.08;2.78;;;;;;;;;;5072001;28;20201;-79
2023/02/20 07:54:11;;;;;;;3.38;3.08;;;;;;;;;;5072165;28;20205;-80
2023/02/20 07:56:40;;;;;;;3.80;3.42;;;;;;;;;;5072444;28;20193;-80
2023/02/20 07:59:08;;;;;;;5.32;3.25;;;;;;;;;;5071468;28;20671;-79
2023/02/20 08:01:36;;;;;;;3.28;2.85;;;;;;;;;;5072960;28;20197;-80
2023/02/20 08:04:05;;;;;;;3.75;3.45;;;;;;;;;;5072742;28;20296;-84
2023/02/20 08:06:32;;;;;;;2.55;2.35;;;;;;;;;;5073663;28;20312;-81
2023/02/20 08:09:00;;;;;;;3.42;3.13;;;;;;;;;;5072962;28;20244;-81
2023/02/20 08:11:27;;;;;;;2.80;2.60;;;;;;;;;;5074034;28;20200;-82
2023/02/20 08:13:55;;;;;;;3.15;2.88;;;;;;;;;;5073277;28;20205;-81
2023/02/20 08:16:23;;;;;;;3.40;2.63;;;;;;;;;;5072791;28;20208;-81
2023/02/20 08:18:50;;;;;;;3.42;3.05;;;;;;;;;;5071742;28;20267;-82
2023/02/20 08:21:19;;;;;;;4.15;2.92;;;;;;;;;;5070921;28;20283;-80
2023/02/20 08:23:47;;;;;;;5.82;2.88;;;;;;;;;;5070575;28;20209;-80
2023/02/20 08:26:14;;;;;;;3.05;2.55;;;;;;;;;;5072021;28;20225;-80
2023/02/20 08:28:42;;;;;;;2.08;1.92;;;;;;;;;;5071247;28;20315;-80
2023/02/20 08:31:09;;;;;;;2.33;2.13;;;;;;;;;;5073841;28;20205;-81
2023/02/20 08:33:37;;;;;;;4.07;2.72;;;;;;;;;;5072925;28;20215;-80
2023/02/20 08:36:05;;;;;;;2.40;2.17;;;;;;;;;;5074355;28;20287;-82
2023/02/20 08:38:36;;;;;;;3.00;2.63;;;;;;;;;;5073753;28;20221;-81
2023/02/20 08:41:06;;;;;;;2.80;2.30;;;;;;;;;;5074508;28;20201;-81
2023/02/20 08:43:34;;;;;;;2.63;2.42;;;;;;;;;;5073283;28;20201;-80
2023/02/20 08:46:02;;;;;;;2.85;2.58;;;;;;;;;;5073485;28;20260;-80
2023/02/20 08:48:30;;;;;;;2.20;2.00;;;;;;;;;;5073511;28;20217;-80
2023/02/20 08:50:57;;;;;;;2.33;1.92;;;;;;;;;;5072359;28;20204;-81
2023/02/20 08:53:25;;;;;;;2.00;1.90;;;;;;;;;;5071711;28;20284;-80
2023/02/20 08:55:53;;;;;;;2.25;2.05;;;;;;;;;;5071631;28;20269;-81
2023/02/20 08:58:22;;;;;;;4.70;2.10;;;;;;;;;;5070201;28;20251;-80
2023/02/20 09:00:50;;;;;;;2.00;1.90;;;;;;;;;;5071605;28;20216;-81
2023/02/20 09:03:18;;;;;;;2.03;1.85;;;;;;;;;;5072503;28;20203;-82
2023/02/20 09:05:46;;;;;;;2.10;1.90;;;;;;;;;;5071773;28;20250;-80
2023/02/20 09:08:13;;;;;;;2.28;2.10;;;;;;;;;;5071129;28;20275;-81
2023/02/20 09:10:41;;;;;;;4.70;2.25;;;;;;;;;;5070845;28;20769;-81
2023/02/20 09:13:09;;;;;;;1.85;1.75;;;;;;;;;;5070681;28;20197;-81
2023/02/20 09:15:38;;;;;;;2.05;1.80;;;;;;;;;;5070915;28;20205;-81
2023/02/20 09:18:08;;;;;;;2.20;1.83;;;;;;;;;;5070191;28;21000;-81
2023/02/20 09:20:36;;;;;;;2.20;2.00;;;;;;;;;;5070814;28;20564;-81
2023/02/20 09:23:04;;;;;;;2.95;2.65;;;;;;;;;;5070676;28;20201;-80
2023/02/20 09:25:31;;;;;;;3.78;2.58;;;;;;;;;;5069870;28;20619;-81
2023/02/20 09:27:59;;;;;;;1.67;1.58;;;;;;;;;;5065005;28;20237;-80
2023/02/20 09:30:28;;;;;;;1.88;1.75;;;;;;;;;;5050404;28;20202;-81
2023/02/20 09:32:56;;;;;;;2.67;2.47;;;;;;;;;;5050746;28;20198;-81
2023/02/20 09:35:27;;;;;;;1.88;1.67;;;;;;;;;;5050501;28;20197;-81
2023/02/20 09:37:54;;;;;;;3.00;2.40;;;;;;;;;;5049948;28;20279;-82
2023/02/20 09:40:23;;;;;;;2.08;1.88;;;;;;;;;;5049864;28;20215;-81
2023/02/20 09:43:12;;;;;;;2.28;1.80;;;;;;;;;;5050608;28;20297;-81
2023/02/20 09:45:43;;;;;;;2.22;2.00;;;;;;;;;;5066740;28;20215;-81
2023/02/20 09:48:23;;;;;;;1.80;1.65;;;;;;;;;;5070128;28;20245;-81
2023/02/20 09:50:55;;;;;;;7.95;7.15;;;;;;;;;;5070424;28;20830;-81
2023/02/20 09:53:26;;;;;;;11.93;10.73;;;;;;;;;;5070558;28;20212;-82
2023/02/20 09:55:56;;;;;;;7.10;5.47;;;;;;;;;;5070239;28;20224;-81
2023/02/20 09:58:32;;;;;;;5.15;4.07;;;;;;;;;;5069728;28;20217;-82
2023/02/20 10:01:03;;;;;;;3.10;2.80;;;;;;;;;;5070505;28;20295;-79
2023/02/20 10:03:36;;;;;;;2.05;1.92;;;;;;;;;;5070560;28;20753;-79
2023/02/20 10:06:08;;;;;;;2.13;1.92;;;;;;;;;;5070600;28;20585;-79
2023/02/20 10:08:36;;;;;;;3.33;2.25;;;;;;;;;;5069588;28;20225;-78
2023/02/20 10:11:04;;;;;;;2.55;2.35;;;;;;;;;;5070511;28;20209;-79
2023/02/20 10:13:44;;;;;;;3.80;2.13;;;;;;;;;;5070112;28;20299;-80
2023/02/20 10:16:23;;;;;;;3.65;3.35;;;;;;;;;;5052580;28;20193;-80
2023/02/20 10:19:02;;;;;;;2.15;2.05;;;;;;;;;;5053321;28;20224;-80
2023/02/20 10:21:43;;;;;;;7.18;4.30;;;;;;;;;;5054442;28;20201;-79
2023/02/20 10:24:28;;;;;;;2.70;2.50;;;;;;;;;;5054662;28;20658;-79
2023/02/20 10:27:01;;;;;;;3.10;2.53;;;;;;;;;;5054012;28;20208;-80
2023/02/20 10:29:33;;;;;;;2.08;1.60;;;;;;;;;;5053016;28;20940;-78
2023/02/20 10:32:05;;;;;;;2.95;1.98;;;;;;;;;;5054343;28;20263;-79
2023/02/20 10:34:37;;;;;;;2.30;2.10;;;;;;;;;;5054767;28;20745;-80
2023/02/20 10:37:11;;;;;;;2.95;1.98;;;;;;;;;;5057327;28;20201;-79
2023/02/20 10:39:47;;;;;;;2.10;2.00;;;;;;;;;;5055562;28;20569;-80
2023/02/20 10:42:21;;;;;;;1.95;1.75;;;;;;;;;;5054575;28;20205;-80
2023/02/20 10:44:53;;;;;;;1.83;1.73;;;;;;;;;;5064158;28;20209;-79
2023/02/20 10:47:27;;;;;;;2.20;1.40;;;;;;;;;;5074334;28;20687;-79
2023/02/20 10:49:59;;;;;;;2.67;1.77;;;;;;;;;;5073975;28;20210;-80
2023/02/20 10:52:30;;;;;;;2.50;1.65;;;;;;;;;;5075109;28;20221;-81
2023/02/20 10:55:06;;;;;;;1.85;1.67;;;;;;;;;;5074005;28;20646;-79
2023/02/20 10:57:37;;;;;;;1.63;1.52;;;;;;;;;;5074445;28;20217;-80
2023/02/20 11:00:10;;;;;;;1.85;1.55;;;;;;;;;;5073019;28;20201;-81
2023/02/20 11:02:44;;;;;;;1.50;1.40;;;;;;;;;;5075001;28;20204;-80
2023/02/20 11:05:15;;;;;;;1.60;1.40;;;;;;;;;;5074309;28;20254;-81
2023/02/20 11:07:42;;;;;;;1.40;1.30;;;;;;;;;;5074291;28;20237;-80
2023/02/20 11:10:10;;;;;;;1.38;1.27;;;;;;;;;;5073479;28;20207;-79
2023/02/20 11:12:42;;;;;;;3.63;1.45;;;;;;;;;;5074284;28;20201;-81
2023/02/20 11:15:13;;;;;;;1.67;1.45;;;;;;;;;;5073667;28;20232;-80
2023/02/20 11:17:42;;;;;;;0.93;0.93;;;;;;;;;;5074203;28;20750;-79
2023/02/20 11:20:45;;;;;;;3.83;1.50;;;;;;;;;;5073253;28;20703;-80
2023/02/20 11:23:35;;;;;;;1.10;1.10;;;;;;;;;;5073225;28;20724;-80
2023/02/20 11:26:32;;;;;;;1.25;1.20;;;;;;;;;;5073505;28;20681;-79
2023/02/20 11:29:05;;;;;;;1.48;1.02;;;;;;;;;;5072041;28;20893;-79
2023/02/20 11:31:34;;;;;;;0.98;0.98;;;;;;;;;;5073506;28;20222;-79
2023/02/20 11:34:05;;;;;;;1.38;1.00;;;;;;;;;;5073401;28;20207;-83
2023/02/20 11:36:37;;;;;;;1.40;1.30;;;;;;;;;;5072650;28;20201;-81
2023/02/20 11:39:21;;;;;;;1.67;1.58;;;;;;;;;;5072387;28;20239;-80
2023/02/20 11:41:50;;;;;;;1.83;1.40;;;;;;;;;;5073076;28;20209;-80
2023/02/20 11:44:25;;;;;;;1.30;1.20;;;;;;;;;;5072536;28;20661;-81
2023/02/20 11:47:18;;;;;;;1.63;1.50;;;;;;;;;;5072917;28;20193;-80
2023/02/20 11:49:47;;;;;;;1.55;1.10;;;;;;;;;;5071788;28;20274;-80
2023/02/20 11:52:20;;;;;;;1.50;1.00;;;;;;;;;;5072720;28;20208;-79
2023/02/20 11:54:49;;;;;;;1.65;1.55;;;;;;;;;;5072364;28;20203;-80
2023/02/20 11:57:25;;;;;;;1.73;1.20;;;;;;;;;;5072513;28;20201;-80
2023/02/20 12:00:07;;;;;;;1.30;1.20;;;;;;;;;;5051809;28;20201;-79
2023/02/20 12:02:35;;;;;;;1.98;1.40;;;;;;;;;;5052522;28;20677;-80
2023/02/20 12:05:14;;;;;;;1.30;1.20;;;;;;;;;;5052346;28;20208;-80
2023/02/20 12:07:44;;;;;;;0.98;0.98;;;;;;;;;;5052070;28;20229;-80
2023/02/20 12:10:36;;;;;;;1.27;1.23;;;;;;;;;;5051296;28;20227;-79
2023/02/20 12:13:04;;;;;;;1.50;1.40;;;;;;;;;;5052511;28;20206;-80
2023/02/20 12:15:32;;;;;;;1.30;1.20;;;;;;;;;;5067119;28;20697;-79
2023/02/20 12:18:20;;;;;;;3.20;1.40;;;;;;;;;;5071145;28;20315;-80
2023/02/20 12:20:52;;;;;;;1.00;1.00;;;;;;;;;;5071775;28;20201;-80
2023/02/20 12:23:31;;;;;;;1.13;1.10;;;;;;;;;;5071628;28;20201;-80
2023/02/20 12:26:14;;;;;;;1.17;1.13;;;;;;;;;;5071557;28;20685;-79
2023/02/20 12:28:53;;;;;;;1.17;1.10;;;;;;;;;;5070692;28;20232;-79
2023/02/20 12:31:41;;;;;;;1.10;1.10;;;;;;;;;;5071192;28;20664;-79
2023/02/20 12:34:25;;;;;;;1.50;1.40;;;;;;;;;;5071500;28;20207;-80
2023/02/20 12:37:00;;;;;;;1.52;1.42;;;;;;;;;;5070864;28;20207;-79
2023/02/20 12:39:34;;;;;;;1.73;1.42;;;;;;;;;;5070074;28;20220;-80
2023/02/20 12:42:16;;;;;;;1.27;1.17;;;;;;;;;;5070923;28;20207;-79
2023/02/20 12:45:14;;;;;;;1.70;1.58;;;;;;;;;;5070505;28;20652;-79
2023/02/20 12:47:43;;;;;;;1.50;1.40;;;;;;;;;;5053265;28;20221;-79
2023/02/20 12:50:36;;;;;;;1.50;1.27;;;;;;;;;;5069160;28;20221;-79
2023/02/20 12:53:33;;;;;;;1.50;1.40;;;;;;;;;;5069471;28;20205;-79
2023/02/20 12:56:13;;;;;;;0.93;0.93;;;;;;;;;;5067768;28;20214;-79
2023/02/20 12:58:50;;;;;;;2.35;1.63;;;;;;;;;;5069075;28;20232;-79
2023/02/20 13:01:20;;;;;;;1.65;1.55;;;;;;;;;;5070425;28;20200;-79
2023/02/20 13:03:59;;;;;;;1.25;1.15;;;;;;;;;;5071168;28;20197;-79
2023/02/20 13:06:32;;;;;;;3.20;1.58;;;;;;;;;;5070964;28;20203;-78
2023/02/20 13:09:11;;;;;;;1.65;1.50;;;;;;;;;;5069985;28;20225;-78
2023/02/20 13:11:42;;;;;;;1.95;1.77;;;;;;;;;;5070687;28;20200;-79
2023/02/20 13:14:25;;;;;;;2.67;1.80;;;;;;;;;;5070775;28;20213;-79
2023/02/20 13:16:59;;;;;;;2.03;1.60;;;;;;;;;;5070820;28;20577;-79
2023/02/20 13:19:31;;;;;;;1.73;1.55;;;;;;;;;;5070117;28;20216;-79
2023/02/20 13:21:59;;;;;;;1.27;1.20;;;;;;;;;;5070435;28;20266;-79
2023/02/20 13:24:34;;;;;;;1.48;1.38;;;;;;;;;;5070717;28;20728;-79
2023/02/20 13:27:07;;;;;;;1.38;1.23;;;;;;;;;;5070879;28;20321;-78
2023/02/20 13:29:36;;;;;;;1.50;1.40;;;;;;;;;;5069677;28;20240;-79
2023/02/20 13:32:23;;;;;;;2.38;1.70;;;;;;;;;;5070556;28;20211;-77
2023/02/20 13:34:50;;;;;;;1.83;1.70;;;;;;;;;;5070794;28;20204;-78
2023/02/20 13:37:54;;;;;;;1.27;1.17;;;;;;;;;;5070071;28;20197;-78
2023/02/20 13:40:44;;;;;;;1.50;1.40;;;;;;;;;;5057854;28;20687;-79
2023/02/20 13:43:35;;;;;;;3.22;2.03;;;;;;;;;;5070998;28;20594;-79
2023/02/20 13:46:29;;;;;;;1.30;1.20;;;;;;;;;;5049958;28;20689;-78
2023/02/20 13:48:56;;;;;;;4.47;1.70;;;;;;;;;;5067037;28;20597;-80
2023/02/20 13:51:38;;;;;;;2.72;1.80;;;;;;;;;;5072638;28;20224;-79
2023/02/20 13:54:25;;;;;;;2.67;1.60;;;;;;;;;;5074302;28;20201;-79
2023/02/20 13:57:01;;;;;;;1.30;1.20;;;;;;;;;;5074712;28;20204;-79
2023/02/20 13:59:29;;;;;;;1.35;1.25;;;;;;;;;;5076326;28;20229;-79
2023/02/20 14:02:03;;;;;;;4.32;2.10;;;;;;;;;;5076934;28;20201;-79
2023/02/20 14:04:31;;;;;;;1.52;1.42;;;;;;;;;;5074955;28;20201;-80
2023/02/20 14:06:58;;;;;;;1.85;1.75;;;;;;;;;;5074484;28;20201;-81
2023/02/20 14:09:30;;;;;;;1.80;1.70;;;;;;;;;;5073686;28;20720;-79
2023/02/20 14:12:07;;;;;;;2.15;1.65;;;;;;;;;;5074681;28;20209;-80
2023/02/20 14:14:38;;;;;;;1.58;1.48;;;;;;;;;;5074166;28;20211;-79
2023/02/20 14:17:08;;;;;;;1.60;1.50;;;;;;;;;;5074832;28;20208;-80
2023/02/20 14:19:41;;;;;;;2.22;1.75;;;;;;;;;;5073722;28;20703;-78
2023/02/20 14:22:31;;;;;;;2.95;2.25;;;;;;;;;;5074890;28;20626;-80
2023/02/20 14:25:26;;;;;;;1.85;1.30;;;;;;;;;;5068832;28;20205;-80
2023/02/20 14:28:06;;;;;;;2.22;1.90;;;;;;;;;;5073412;28;21337;-81
2023/02/20 14:30:34;;;;;;;1.80;1.60;;;;;;;;;;5074438;28;20617;-78
2023/02/20 14:33:01;;;;;;;2.75;1.60;;;;;;;;;;5073800;28;20691;-78
2023/02/20 14:35:58;;;;;;;1.50;1.40;;;;;;;;;;5073350;28;20205;-79
2023/02/20 14:38:39;;;;;;;1.25;1.10;;;;;;;;;;5073128;28;20278;-78
2023/02/20 14:41:15;;;;;;;1.40;1.30;;;;;;;;;;5073540;28;20223;-80
2023/02/20 14:43:44;;;;;;;1.45;1.20;;;;;;;;;;5073976;28;20555;-81
2023/02/20 14:46:22;;;;;;;1.40;1.30;;;;;;;;;;5073687;28;20204;-81
2023/02/20 14:48:49;;;;;;;1.30;1.20;;;;;;;;;;5055971;28;20217;-81
2023/02/20 14:51:23;;;;;;;2.05;1.95;;;;;;;;;;5073888;28;20992;-81
2023/02/20 14:53:59;;;;;;;2.08;1.92;;;;;;;;;;5074164;28;20582;-81
2023/02/20 14:56:26;;;;;;;2.45;2.35;;;;;;;;;;5073548;28;20232;-81
2023/02/20 14:58:55;;;;;;;1.85;1.75;;;;;;;;;;5073397;28;20308;-83
2023/02/20 15:01:38;;;;;;;2.00;1.80;;;;;;;;;;5073491;28;20197;-80
2023/02/20 15:04:12;;;;;;;2.10;2.00;;;;;;;;;;5073527;28;20201;-80
2023/02/20 15:06:42;;;;;;;2.40;2.20;;;;;;;;;;5073659;28;20291;-81
2023/02/20 15:09:10;;;;;;;2.58;2.30;;;;;;;;;;5091158;22;20227;-84
2023/02/20 15:11:44;;;;;;;3.10;2.80;;;;;;;;;;5073518;28;20224;-85
2023/02/20 15:14:19;;;;;;;2.28;2.08;;;;;;;;;;5068742;28;20677;-86
2023/02/20 15:16:47;;;;;;;2.05;1.95;;;;;;;;;;5052863;28;20670;-85
2023/02/20 15:19:22;;;;;;;3.50;3.20;;;;;;;;;;5052228;28;20316;-85
2023/02/20 15:21:58;;;;;;;2.38;2.17;;;;;;;;;;5053108;28;20200;-86
2023/02/20 15:24:35;;;;;;;2.38;2.22;;;;;;;;;;5052716;28;20292;-86
2023/02/20 15:27:12;;;;;;;2.58;2.38;;;;;;;;;;5053221;28;20207;-86
2023/02/20 15:29:42;;;;;;;3.05;2.75;;;;;;;;;;5052050;28;20225;-85